createdAt,value
2023-05-22T00:00:03.809Z,1003.25
2023-05-22T00:01:03.180Z,1003.20
2023-05-22T00:02:03.724Z,1003.19
2023-05-22T00:03:03.407Z,1003.22
2023-05-22T00:04:03.798Z,1003.20
2023-05-22T00:05:02.329Z,1003.21
2023-05-22T00:06:02.245Z,1003.16
2023-05-22T00:07:01.840Z,1003.14
2023-05-22T00:08:01.975Z,1003.13
2023-05-22T00:09:02.144Z,1003.09
2023-05-22T00:10:02.255Z,1003.07
2023-05-22T00:11:02.546Z,1003.06
2023-05-22T00:12:02.347Z,1003.05
2023-05-22T00:13:02.266Z,1003.04
2023-05-22T00:14:02.460Z,1003.03
2023-05-22T00:15:02.857Z,1003.11
2023-05-22T00:16:02.851Z,1003.07
2023-05-22T00:17:03.125Z,1003.03
2023-05-22T00:18:03.128Z,1003.07
2023-05-22T00:19:02.724Z,1003.08
2023-05-22T00:20:01.856Z,1003.03
2023-05-22T00:21:02.100Z,1003.04
2023-05-22T00:22:01.948Z,1002.99
2023-05-22T00:23:01.915Z,1002.99
2023-05-22T00:24:01.952Z,1002.97
2023-05-22T00:25:02.019Z,1002.97
2023-05-22T00:26:02.452Z,1002.93
2023-05-22T00:27:01.911Z,1002.94
2023-05-22T00:28:02.045Z,1002.94
2023-05-22T00:29:02.160Z,1003.01
2023-05-22T00:30:02.141Z,1002.93
2023-05-22T00:31:01.985Z,1002.97
2023-05-22T00:32:02.479Z,1002.99
2023-05-22T00:33:02.697Z,1002.93
2023-05-22T00:34:02.346Z,1002.94
2023-05-22T00:35:02.891Z,1002.98
2023-05-22T00:36:02.588Z,1002.95
2023-05-22T00:37:02.679Z,1002.99
2023-05-22T00:38:02.896Z,1002.95
2023-05-22T00:39:02.507Z,1002.96
2023-05-22T00:40:03.035Z,1002.94
2023-05-22T00:41:02.865Z,1002.92
2023-05-22T00:42:02.484Z,1002.89
2023-05-22T00:43:02.629Z,1002.92
2023-05-22T00:44:02.801Z,1002.91
2023-05-22T00:45:02.229Z,1002.95
2023-05-22T00:46:02.260Z,1002.91
2023-05-22T00:47:02.113Z,1002.90
2023-05-22T00:48:02.197Z,1002.94
2023-05-22T00:49:02.445Z,1002.93
2023-05-22T00:50:02.277Z,1003.00
2023-05-22T00:51:02.411Z,1002.96
2023-05-22T00:52:02.557Z,1003.01
2023-05-22T00:53:02.230Z,1003.00
2023-05-22T00:54:02.499Z,1002.92
2023-05-22T00:55:02.602Z,1002.95
2023-05-22T00:56:02.729Z,1002.99
2023-05-22T00:57:02.987Z,1002.99
2023-05-22T00:58:02.900Z,1002.97
2023-05-22T00:59:02.906Z,1002.97
2023-05-22T01:00:02.121Z,1002.95
2023-05-22T01:01:02.387Z,1002.93
2023-05-22T01:02:02.290Z,1002.92
2023-05-22T01:03:02.383Z,1002.91
2023-05-22T01:04:02.424Z,1002.98
2023-05-22T01:05:02.342Z,1003.00
2023-05-22T01:06:02.902Z,1002.99
2023-05-22T01:07:02.724Z,1002.98
2023-05-22T01:08:02.126Z,1002.95
2023-05-22T01:09:02.249Z,1002.97
2023-05-22T01:10:02.195Z,1002.96
2023-05-22T01:11:02.678Z,1002.99
2023-05-22T01:12:02.906Z,1002.97
2023-05-22T01:13:02.759Z,1002.97
2023-05-22T01:14:02.474Z,1003.01
2023-05-22T01:15:02.592Z,1003.02
2023-05-22T01:16:02.735Z,1002.94
2023-05-22T01:17:02.350Z,1002.99
2023-05-22T01:18:02.502Z,1002.95
2023-05-22T01:19:02.435Z,1002.93
2023-05-22T01:20:02.339Z,1002.94
2023-05-22T01:21:02.109Z,1002.93
2023-05-22T01:22:02.659Z,1002.94
2023-05-22T01:23:02.515Z,1002.98
2023-05-22T01:24:02.675Z,1002.92
2023-05-22T01:25:02.416Z,1002.95
2023-05-22T01:26:02.535Z,1002.92
2023-05-22T01:27:02.571Z,1002.93
2023-05-22T01:28:02.436Z,1002.98
2023-05-22T01:29:02.636Z,1002.95
2023-05-22T01:30:02.849Z,1002.97
2023-05-22T01:31:02.978Z,1002.96
2023-05-22T01:32:02.550Z,1002.95
2023-05-22T01:33:02.810Z,1002.98
2023-05-22T01:34:03.037Z,1002.95
2023-05-22T01:35:03.180Z,1002.96
2023-05-22T01:36:03.170Z,1002.95
2023-05-22T01:37:03.058Z,1002.89
2023-05-22T01:38:03.459Z,1002.94
2023-05-22T01:39:03.313Z,1002.92
2023-05-22T01:40:02.412Z,1002.92
2023-05-22T01:41:03.060Z,1002.90
2023-05-22T01:42:02.927Z,1002.99
2023-05-22T01:43:02.993Z,1002.99
2023-05-22T01:44:02.917Z,1003.01
2023-05-22T01:45:03.308Z,1002.96
2023-05-22T01:46:02.955Z,1003.00
2023-05-22T01:47:02.819Z,1003.01
2023-05-22T01:48:02.963Z,1003.01
2023-05-22T01:49:02.982Z,1003.03
2023-05-22T01:50:02.676Z,1002.94
2023-05-22T01:51:02.459Z,1002.97
2023-05-22T01:52:02.582Z,1002.97
2023-05-22T01:53:02.917Z,1002.97
2023-05-22T01:54:02.484Z,1002.95
2023-05-22T01:55:03.315Z,1002.97
2023-05-22T01:56:03.472Z,1002.93
2023-05-22T01:57:03.047Z,1002.92
2023-05-22T01:58:03.509Z,1002.94
2023-05-22T01:59:03.326Z,1002.95
2023-05-22T02:00:02.248Z,1002.94
2023-05-22T02:01:02.147Z,1002.89
2023-05-22T02:02:02.383Z,1002.87
2023-05-22T02:03:02.784Z,1002.88
2023-05-22T02:04:02.711Z,1002.86
2023-05-22T02:05:02.806Z,1002.92
2023-05-22T02:06:02.700Z,1002.96
2023-05-22T02:07:02.608Z,1002.92
2023-05-22T02:08:02.811Z,1002.90
2023-05-22T02:09:02.629Z,1002.97
2023-05-22T02:10:02.975Z,1002.96
2023-05-22T02:11:02.858Z,1002.91
2023-05-22T02:12:02.535Z,1002.97
2023-05-22T02:13:02.898Z,1002.99
2023-05-22T02:14:03.047Z,1003.00
2023-05-22T02:15:02.849Z,1003.03
2023-05-22T02:16:02.949Z,1003.05
2023-05-22T02:17:02.674Z,1002.97
2023-05-22T02:18:02.541Z,1003.01
2023-05-22T02:19:02.681Z,1003.07
2023-05-22T02:20:02.778Z,1002.95
2023-05-22T02:21:02.732Z,1002.94
2023-05-22T02:22:03.060Z,1003.01
2023-05-22T02:23:03.144Z,1002.98
2023-05-22T02:24:03.002Z,1002.98
2023-05-22T02:25:02.848Z,1003.00
2023-05-22T02:26:03.274Z,1002.96
2023-05-22T02:27:03.267Z,1002.92
2023-05-22T02:28:03.198Z,1002.94
2023-05-22T02:29:03.040Z,1002.91
2023-05-22T02:30:03.265Z,1002.94
2023-05-22T02:31:03.362Z,1002.90
2023-05-22T02:32:03.228Z,1002.91
2023-05-22T02:33:03.143Z,1002.92
2023-05-22T02:34:03.050Z,1002.85
2023-05-22T02:35:03.217Z,1002.90
2023-05-22T02:36:03.021Z,1002.83
2023-05-22T02:37:03.276Z,1002.84
2023-05-22T02:38:03.430Z,1002.85
2023-05-22T02:39:03.395Z,1002.84
2023-05-22T02:40:03.134Z,1002.84
2023-05-22T02:41:03.229Z,1002.86
2023-05-22T02:42:02.857Z,1002.83
2023-05-22T02:43:03.270Z,1002.84
2023-05-22T02:44:02.972Z,1002.81
2023-05-22T02:45:02.608Z,1002.83
2023-05-22T02:46:03.010Z,1002.82
2023-05-22T02:47:03.013Z,1002.87
2023-05-22T02:48:02.973Z,1002.82
2023-05-22T02:49:02.931Z,1002.89
2023-05-22T02:50:03.497Z,1002.88
2023-05-22T02:51:03.349Z,1002.82
2023-05-22T02:52:03.497Z,1002.89
2023-05-22T02:53:03.640Z,1002.84
2023-05-22T02:54:03.483Z,1002.85
2023-05-22T02:55:02.641Z,1002.88
2023-05-22T02:56:02.748Z,1002.83
2023-05-22T02:57:02.389Z,1002.81
2023-05-22T02:58:02.591Z,1002.83
2023-05-22T02:59:02.739Z,1002.79
2023-05-22T03:00:03.321Z,1002.80
2023-05-22T03:01:03.289Z,1002.76
2023-05-22T03:02:03.206Z,1002.79
2023-05-22T03:03:02.911Z,1002.78
2023-05-22T03:04:03.190Z,1002.82
2023-05-22T03:05:02.850Z,1002.81
2023-05-22T03:06:03.056Z,1002.77
2023-05-22T03:07:03.255Z,1002.77
2023-05-22T03:08:02.944Z,1002.78
2023-05-22T03:09:03.105Z,1002.78
2023-05-22T03:10:02.392Z,1002.80
2023-05-22T03:11:02.412Z,1002.80
2023-05-22T03:12:02.671Z,1002.75
2023-05-22T03:13:02.677Z,1002.77
2023-05-22T03:14:02.389Z,1002.81
2023-05-22T03:15:03.276Z,1002.84
2023-05-22T03:16:03.165Z,1002.76
2023-05-22T03:17:03.142Z,1002.82
2023-05-22T03:18:03.150Z,1002.81
2023-05-22T03:19:03.518Z,1002.82
2023-05-22T03:20:03.096Z,1002.82
2023-05-22T03:21:03.273Z,1002.82
2023-05-22T03:22:03.421Z,1002.86
2023-05-22T03:23:03.632Z,1002.82
2023-05-22T03:24:03.550Z,1002.85
2023-05-22T03:25:03.708Z,1002.87
2023-05-22T03:26:03.750Z,1002.90
2023-05-22T03:27:03.563Z,1002.90
2023-05-22T03:28:03.626Z,1002.86
2023-05-22T03:29:03.147Z,1002.86
2023-05-22T03:30:02.309Z,1002.81
2023-05-22T03:31:02.483Z,1002.79
2023-05-22T03:32:02.869Z,1002.79
2023-05-22T03:33:02.346Z,1002.81
2023-05-22T03:34:02.466Z,1002.80
2023-05-22T03:35:02.666Z,1002.82
2023-05-22T03:36:02.887Z,1002.77
2023-05-22T03:37:03.114Z,1002.74
2023-05-22T03:38:03.055Z,1002.73
2023-05-22T03:39:03.078Z,1002.74
2023-05-22T03:40:02.324Z,1002.73
2023-05-22T03:41:02.484Z,1002.74
2023-05-22T03:42:02.681Z,1002.75
2023-05-22T03:43:02.366Z,1002.81
2023-05-22T03:44:02.611Z,1002.83
2023-05-22T03:45:02.831Z,1002.84
2023-05-22T03:46:03.136Z,1002.86
2023-05-22T03:47:02.745Z,1002.84
2023-05-22T03:48:03.249Z,1002.85
2023-05-22T03:49:02.995Z,1002.85
2023-05-22T03:50:03.257Z,1002.84
2023-05-22T03:51:03.580Z,1002.88
2023-05-22T03:52:03.216Z,1002.83
2023-05-22T03:53:03.326Z,1002.84
2023-05-22T03:54:03.677Z,1002.85
2023-05-22T03:55:03.307Z,1002.87
2023-05-22T03:56:03.383Z,1002.80
2023-05-22T03:57:02.873Z,1002.82
2023-05-22T03:58:03.126Z,1002.80
2023-05-22T03:59:03.347Z,1002.86
2023-05-22T04:00:03.219Z,1002.83
2023-05-22T04:01:03.659Z,1002.77
2023-05-22T04:02:03.676Z,1002.82
2023-05-22T04:03:03.765Z,1002.77
2023-05-22T04:04:03.327Z,1002.80
2023-05-22T04:05:03.076Z,1002.77
2023-05-22T04:06:02.556Z,1002.86
2023-05-22T04:07:03.078Z,1002.81
2023-05-22T04:08:02.412Z,1002.81
2023-05-22T04:09:02.653Z,1002.80
2023-05-22T04:10:02.894Z,1002.80
2023-05-22T04:11:02.726Z,1002.81
2023-05-22T04:12:02.974Z,1002.83
2023-05-22T04:13:02.891Z,1002.83
2023-05-22T04:14:03.221Z,1002.89
2023-05-22T04:15:02.531Z,1002.87
2023-05-22T04:16:02.905Z,1002.88
2023-05-22T04:17:02.559Z,1002.87
2023-05-22T04:18:02.436Z,1002.94
2023-05-22T04:19:02.817Z,1002.92
2023-05-22T04:20:02.842Z,1002.91
2023-05-22T04:21:03.096Z,1002.94
2023-05-22T04:22:02.640Z,1002.96
2023-05-22T04:23:03.114Z,1003.00
2023-05-22T04:24:02.732Z,1002.99
2023-05-22T04:25:03.174Z,1002.99
2023-05-22T04:26:02.817Z,1002.96
2023-05-22T04:27:03.093Z,1002.98
2023-05-22T04:28:02.790Z,1002.99
2023-05-22T04:29:03.143Z,1003.00
2023-05-22T04:30:02.568Z,1002.94
2023-05-22T04:31:02.547Z,1003.04
2023-05-22T04:32:02.362Z,1003.02
2023-05-22T04:33:02.586Z,1003.08
2023-05-22T04:34:02.222Z,1003.02
2023-05-22T04:35:02.548Z,1003.04
2023-05-22T04:36:02.843Z,1003.02
2023-05-22T04:37:02.555Z,1003.09
2023-05-22T04:38:02.881Z,1003.11
2023-05-22T04:39:02.883Z,1003.06
2023-05-22T04:40:02.981Z,1003.05
2023-05-22T04:41:02.883Z,1003.09
2023-05-22T04:42:03.219Z,1003.09
2023-05-22T04:43:03.151Z,1003.10
2023-05-22T04:44:03.171Z,1003.15
2023-05-22T04:45:03.177Z,1003.14
2023-05-22T04:46:03.440Z,1003.16
2023-05-22T04:47:04.332Z,1003.21
2023-05-22T04:48:03.077Z,1003.25
2023-05-22T04:49:03.288Z,1003.23
2023-05-22T04:50:02.582Z,1003.23
2023-05-22T04:51:02.510Z,1003.26
2023-05-22T04:52:02.300Z,1003.24
2023-05-22T04:53:02.335Z,1003.25
2023-05-22T04:54:02.615Z,1003.28
2023-05-22T04:55:04.590Z,1003.27
2023-05-22T04:56:02.721Z,1003.24
2023-05-22T04:57:02.888Z,1003.22
2023-05-22T04:58:03.004Z,1003.27
2023-05-22T04:59:02.693Z,1003.23
2023-05-22T05:00:02.880Z,1003.29
2023-05-22T05:01:03.026Z,1003.30
2023-05-22T05:02:02.617Z,1003.22
2023-05-22T05:03:03.296Z,1003.26
2023-05-22T05:04:03.025Z,1003.26
2023-05-22T05:05:03.340Z,1003.23
2023-05-22T05:06:03.562Z,1003.29
2023-05-22T05:07:03.368Z,1003.22
2023-05-22T05:08:02.964Z,1003.26
2023-05-22T05:09:03.594Z,1003.26
2023-05-22T05:10:03.799Z,1003.25
2023-05-22T05:11:03.418Z,1003.22
2023-05-22T05:12:03.585Z,1003.32
2023-05-22T05:13:03.492Z,1003.33
2023-05-22T05:14:03.529Z,1003.31
2023-05-22T05:15:03.269Z,1003.30
2023-05-22T05:16:03.111Z,1003.31
2023-05-22T05:17:03.476Z,1003.32
2023-05-22T05:18:02.885Z,1003.31
2023-05-22T05:19:02.947Z,1003.27
2023-05-22T05:20:02.419Z,1003.32
2023-05-22T05:21:02.596Z,1003.30
2023-05-22T05:22:02.787Z,1003.32
2023-05-22T05:23:02.901Z,1003.24
2023-05-22T05:24:02.720Z,1003.24
2023-05-22T05:25:03.324Z,1003.26
2023-05-22T05:26:02.715Z,1003.28
2023-05-22T05:27:03.104Z,1003.32
2023-05-22T05:28:02.867Z,1003.32
2023-05-22T05:29:03.197Z,1003.26
2023-05-22T05:30:03.412Z,1003.29
2023-05-22T05:31:03.108Z,1003.30
2023-05-22T05:32:03.106Z,1003.34
2023-05-22T05:33:03.588Z,1003.38
2023-05-22T05:34:03.001Z,1003.34
2023-05-22T05:35:03.089Z,1003.33
2023-05-22T05:36:02.540Z,1003.32
2023-05-22T05:37:02.590Z,1003.31
2023-05-22T05:38:02.629Z,1003.33
2023-05-22T05:39:02.920Z,1003.28
2023-05-22T05:40:03.189Z,1003.29
2023-05-22T05:41:02.910Z,1003.30
2023-05-22T05:42:02.845Z,1003.34
2023-05-22T05:43:03.024Z,1003.31
2023-05-22T05:44:02.939Z,1003.38
2023-05-22T05:45:03.032Z,1003.33
2023-05-22T05:46:03.384Z,1003.39
2023-05-22T05:47:02.845Z,1003.26
2023-05-22T05:48:03.545Z,1003.30
2023-05-22T05:49:03.093Z,1003.28
2023-05-22T05:50:03.820Z,1003.36
2023-05-22T05:51:03.840Z,1003.29
2023-05-22T05:52:03.446Z,1003.33
2023-05-22T05:53:03.540Z,1003.32
2023-05-22T05:54:03.359Z,1003.32
2023-05-22T05:55:03.101Z,1003.36
2023-05-22T05:56:03.602Z,1003.37
2023-05-22T05:57:03.048Z,1003.36
2023-05-22T05:58:03.493Z,1003.34
2023-05-22T05:59:02.879Z,1003.40
2023-05-22T06:00:03.681Z,1003.45
2023-05-22T06:01:03.780Z,1003.36
2023-05-22T06:02:03.733Z,1003.36
2023-05-22T06:03:03.759Z,1003.38
2023-05-22T06:04:03.351Z,1003.40
2023-05-22T06:05:02.976Z,1003.35
2023-05-22T06:06:02.384Z,1003.35
2023-05-22T06:07:02.893Z,1003.41
2023-05-22T06:08:02.823Z,1003.37
2023-05-22T06:09:02.362Z,1003.38
2023-05-22T06:10:02.458Z,1003.44
2023-05-22T06:11:01.757Z,1003.45
2023-05-22T06:12:01.864Z,1003.45
2023-05-22T06:13:01.730Z,1003.47
2023-05-22T06:14:02.128Z,1003.49
2023-05-22T06:15:02.382Z,1003.45
2023-05-22T06:16:05.677Z,1003.51
2023-05-22T06:17:02.778Z,1003.51
2023-05-22T06:18:02.785Z,1003.44
2023-05-22T06:19:02.777Z,1003.50
2023-05-22T06:20:02.438Z,1003.49
2023-05-22T06:21:02.510Z,1003.49
2023-05-22T06:22:02.587Z,1003.50
2023-05-22T06:23:02.597Z,1003.53
2023-05-22T06:24:03.047Z,1003.46
2023-05-22T06:25:02.407Z,1003.48
2023-05-22T06:26:02.068Z,1003.50
2023-05-22T06:27:02.410Z,1003.48
2023-05-22T06:28:02.089Z,1003.49
2023-05-22T06:29:02.414Z,1003.53
2023-05-22T06:30:04.622Z,1003.52
2023-05-22T06:31:02.910Z,1003.51
2023-05-22T06:32:02.728Z,1003.54
2023-05-22T06:33:02.862Z,1003.51
2023-05-22T06:34:02.656Z,1003.55
2023-05-22T06:35:02.106Z,1003.55
2023-05-22T06:36:02.161Z,1003.50
2023-05-22T06:37:02.108Z,1003.53
2023-05-22T06:38:02.116Z,1003.50
2023-05-22T06:39:01.909Z,1003.52
2023-05-22T06:40:02.006Z,1003.55
2023-05-22T06:41:02.131Z,1003.50
2023-05-22T06:42:02.074Z,1003.52
2023-05-22T06:43:02.401Z,1003.56
2023-05-22T06:44:02.070Z,1003.55
2023-05-22T06:45:02.459Z,1003.55
2023-05-22T06:46:03.042Z,1003.55
2023-05-22T06:47:02.323Z,1003.58
2023-05-22T06:48:02.964Z,1003.55
2023-05-22T06:49:02.361Z,1003.62
2023-05-22T06:50:01.696Z,1003.59
2023-05-22T06:51:01.788Z,1003.59
2023-05-22T06:52:04.497Z,1003.58
2023-05-22T06:53:01.866Z,1003.63
2023-05-22T06:54:02.290Z,1003.65
2023-05-22T06:55:01.996Z,1003.61
2023-05-22T06:56:02.228Z,1003.66
2023-05-22T06:57:01.974Z,1003.69
2023-05-22T06:58:02.515Z,1003.69
2023-05-22T06:59:02.036Z,1003.71
2023-05-22T07:00:02.029Z,1003.69
2023-05-22T07:01:02.306Z,1003.75
2023-05-22T07:02:02.128Z,1003.70
2023-05-22T07:03:02.462Z,1003.69
2023-05-22T07:04:02.622Z,1003.72
2023-05-22T07:05:03.203Z,1003.75
2023-05-22T07:06:02.669Z,1003.81
2023-05-22T07:07:02.719Z,1003.77
2023-05-22T07:08:02.887Z,1003.77
2023-05-22T07:09:02.781Z,1003.78
2023-05-22T07:10:02.471Z,1003.81
2023-05-22T07:11:02.930Z,1003.82
2023-05-22T07:12:02.392Z,1003.82
2023-05-22T07:13:02.640Z,1003.78
2023-05-22T07:14:02.796Z,1003.81
2023-05-22T07:15:02.221Z,1003.80
2023-05-22T07:16:02.161Z,1003.82
2023-05-22T07:17:02.255Z,1003.87
2023-05-22T07:18:02.281Z,1003.79
2023-05-22T07:19:02.275Z,1003.82
2023-05-22T07:20:02.499Z,1003.83
2023-05-22T07:21:03.003Z,1003.81
2023-05-22T07:22:02.794Z,1003.81
2023-05-22T07:23:02.667Z,1003.81
2023-05-22T07:24:02.584Z,1003.84
2023-05-22T07:25:03.121Z,1003.86
2023-05-22T07:26:03.151Z,1003.87
2023-05-22T07:27:03.300Z,1003.85
2023-05-22T07:28:02.974Z,1003.82
2023-05-22T07:29:03.325Z,1003.91
2023-05-22T07:30:03.003Z,1003.92
2023-05-22T07:31:02.650Z,1003.89
2023-05-22T07:32:02.923Z,1003.90
2023-05-22T07:33:02.638Z,1003.91
2023-05-22T07:34:02.702Z,1003.93
2023-05-22T07:35:02.481Z,1003.96
2023-05-22T07:36:02.420Z,1003.96
2023-05-22T07:37:02.725Z,1003.94
2023-05-22T07:38:02.328Z,1003.96
2023-05-22T07:39:02.223Z,1003.93
2023-05-22T07:40:02.673Z,1003.94
2023-05-22T07:41:02.703Z,1003.97
2023-05-22T07:42:02.407Z,1003.94
2023-05-22T07:43:02.324Z,1003.98
2023-05-22T07:44:02.620Z,1003.96
2023-05-22T07:45:02.922Z,1003.96
2023-05-22T07:46:03.111Z,1003.96
2023-05-22T07:47:02.909Z,1003.96
2023-05-22T07:48:02.849Z,1003.97
2023-05-22T07:49:03.356Z,1003.99
2023-05-22T07:50:02.785Z,1004.00
2023-05-22T07:51:02.511Z,1003.99
2023-05-22T07:52:02.291Z,1004.00
2023-05-22T07:53:02.338Z,1004.01
2023-05-22T07:54:02.856Z,1003.98
2023-05-22T07:55:02.870Z,1003.97
2023-05-22T07:56:02.934Z,1004.04
2023-05-22T07:57:02.976Z,1004.04
2023-05-22T07:58:03.213Z,1004.07
2023-05-22T07:59:02.900Z,1004.06
2023-05-22T08:00:02.739Z,1004.09
2023-05-22T08:01:02.369Z,1004.10
2023-05-22T08:02:02.899Z,1004.07
2023-05-22T08:03:02.888Z,1004.06
2023-05-22T08:04:03.066Z,1004.04
2023-05-22T08:05:02.146Z,1003.97
2023-05-22T08:06:02.336Z,1004.05
2023-05-22T08:07:01.648Z,1004.06
2023-05-22T08:08:02.155Z,1004.09
2023-05-22T08:09:01.588Z,1004.03
2023-05-22T08:10:02.605Z,1004.02
2023-05-22T08:11:04.038Z,1004.01
2023-05-22T08:12:02.311Z,1004.02
2023-05-22T08:13:02.443Z,1003.98
2023-05-22T08:14:02.587Z,1004.04
2023-05-22T08:15:02.949Z,1003.96
2023-05-22T08:16:02.753Z,1003.98
2023-05-22T08:17:02.431Z,1003.95
2023-05-22T08:18:02.924Z,1004.00
2023-05-22T08:19:02.880Z,1003.95
2023-05-22T08:20:03.199Z,1003.96
2023-05-22T08:21:02.553Z,1003.93
2023-05-22T08:22:02.817Z,1003.98
2023-05-22T08:23:02.449Z,1003.96
2023-05-22T08:24:03.028Z,1003.97
2023-05-22T08:25:02.169Z,1003.98
2023-05-22T08:26:02.232Z,1003.97
2023-05-22T08:27:02.581Z,1003.94
2023-05-22T08:28:02.318Z,1003.94
2023-05-22T08:29:02.330Z,1003.92
2023-05-22T08:30:02.666Z,1003.94
2023-05-22T08:31:03.035Z,1003.91
2023-05-22T08:32:03.106Z,1003.90
2023-05-22T08:33:02.631Z,1003.87
2023-05-22T08:34:03.016Z,1003.89
2023-05-22T08:35:02.131Z,1003.85
2023-05-22T08:36:02.180Z,1003.84
2023-05-22T08:37:02.495Z,1003.85
2023-05-22T08:38:02.610Z,1003.83
2023-05-22T08:39:02.225Z,1003.86
2023-05-22T08:40:02.652Z,1003.86
2023-05-22T08:41:02.146Z,1003.88
2023-05-22T08:42:02.171Z,1003.90
2023-05-22T08:43:02.201Z,1003.85
2023-05-22T08:44:02.148Z,1003.91
2023-05-22T08:45:03.202Z,1003.92
2023-05-22T08:46:02.815Z,1003.93
2023-05-22T08:47:02.955Z,1003.91
2023-05-22T08:48:03.161Z,1003.92
2023-05-22T08:49:02.889Z,1003.89
2023-05-22T08:50:02.677Z,1003.95
2023-05-22T08:51:02.570Z,1003.91
2023-05-22T08:52:02.526Z,1003.87
2023-05-22T08:53:02.627Z,1003.90
2023-05-22T08:54:02.120Z,1003.94
2023-05-22T08:55:02.271Z,1003.89
2023-05-22T08:56:02.698Z,1003.86
2023-05-22T08:57:02.304Z,1003.89
2023-05-22T08:58:02.193Z,1003.89
2023-05-22T08:59:02.702Z,1003.99
2023-05-22T09:00:03.085Z,1003.96
2023-05-22T09:01:02.999Z,1003.91
2023-05-22T09:02:04.388Z,1003.90
2023-05-22T09:03:02.533Z,1003.90
2023-05-22T09:04:02.664Z,1003.89
2023-05-22T09:05:02.575Z,1003.89
2023-05-22T09:06:02.086Z,1003.88
2023-05-22T09:07:02.418Z,1003.87
2023-05-22T09:08:16.175Z,1003.86
2023-05-22T09:09:02.460Z,1003.87
2023-05-22T09:10:02.165Z,1003.88
2023-05-22T09:11:02.325Z,1003.83
2023-05-22T09:12:02.701Z,1003.91
2023-05-22T09:13:02.478Z,1003.89
2023-05-22T09:14:02.436Z,1003.89
2023-05-22T09:15:02.622Z,1003.86
2023-05-22T09:16:02.901Z,1003.88
2023-05-22T09:17:02.438Z,1003.92
2023-05-22T09:18:02.965Z,1003.86
2023-05-22T09:19:02.483Z,1003.85
2023-05-22T09:20:02.928Z,1003.90
2023-05-22T09:21:03.736Z,1003.85
2023-05-22T09:22:02.996Z,1003.82
2023-05-22T09:23:03.243Z,1003.79
2023-05-22T09:24:03.532Z,1003.81
2023-05-22T09:25:03.361Z,1003.78
2023-05-22T09:26:02.583Z,1003.76
2023-05-22T09:27:02.977Z,1003.87
2023-05-22T09:28:02.502Z,1003.82
2023-05-22T09:29:02.829Z,1003.79
2023-05-22T09:30:02.207Z,1003.81
2023-05-22T09:31:04.179Z,1003.75
2023-05-22T09:32:02.744Z,1003.80
2023-05-22T09:33:02.537Z,1003.78
2023-05-22T09:34:02.187Z,1003.82
2023-05-22T09:35:02.601Z,1003.81
2023-05-22T09:36:03.000Z,1003.79
2023-05-22T09:37:02.641Z,1003.74
2023-05-22T09:38:02.735Z,1003.76
2023-05-22T09:39:03.009Z,1003.78
2023-05-22T09:40:02.866Z,1003.76
2023-05-22T09:41:02.933Z,1003.81
2023-05-22T09:42:03.040Z,1003.77
2023-05-22T09:43:03.047Z,1003.77
2023-05-22T09:44:02.935Z,1003.79
2023-05-22T09:45:02.744Z,1003.73
2023-05-22T09:46:02.759Z,1003.77
2023-05-22T09:47:02.518Z,1003.76
2023-05-22T09:48:02.711Z,1003.78
2023-05-22T09:49:02.323Z,1003.80
2023-05-22T09:50:03.295Z,1003.76
2023-05-22T09:51:03.011Z,1003.81
2023-05-22T09:52:02.971Z,1003.85
2023-05-22T09:53:03.433Z,1003.82
2023-05-22T09:54:03.557Z,1003.82
2023-05-22T09:55:02.733Z,1003.82
2023-05-22T09:56:03.174Z,1003.80
2023-05-22T09:57:02.710Z,1003.81
2023-05-22T09:58:03.218Z,1003.83
2023-05-22T09:59:02.583Z,1003.79
2023-05-22T10:00:03.147Z,1003.78
2023-05-22T10:01:03.206Z,1003.73
2023-05-22T10:02:03.250Z,1003.75
2023-05-22T10:03:03.314Z,1003.75
2023-05-22T10:04:03.156Z,1003.77
2023-05-22T10:05:02.375Z,1003.72
2023-05-22T10:06:02.525Z,1003.74
2023-05-22T10:07:02.315Z,1003.70
2023-05-22T10:08:02.443Z,1003.76
2023-05-22T10:09:02.343Z,1003.78
2023-05-22T10:10:03.446Z,1003.78
2023-05-22T10:11:03.450Z,1003.79
2023-05-22T10:12:02.874Z,1003.82
2023-05-22T10:13:03.213Z,1003.79
2023-05-22T10:14:03.323Z,1003.84
2023-05-22T10:15:02.765Z,1003.77
2023-05-22T10:16:02.891Z,1003.77
2023-05-22T10:17:03.032Z,1003.79
2023-05-22T10:18:03.160Z,1003.79
2023-05-22T10:19:02.663Z,1003.83
2023-05-22T10:20:02.501Z,1003.79
2023-05-22T10:21:02.760Z,1003.77
2023-05-22T10:22:02.617Z,1003.78
2023-05-22T10:23:02.305Z,1003.78
2023-05-22T10:24:02.706Z,1003.79
2023-05-22T10:25:03.234Z,1003.76
2023-05-22T10:26:03.111Z,1003.75
2023-05-22T10:27:02.805Z,1003.75
2023-05-22T10:28:03.251Z,1003.76
2023-05-22T10:29:03.390Z,1003.78
2023-05-22T10:30:02.953Z,1003.81
2023-05-22T10:31:02.305Z,1003.84
2023-05-22T10:32:02.424Z,1003.78
2023-05-22T10:33:02.772Z,1003.77
2023-05-22T10:34:02.935Z,1003.79
2023-05-22T10:35:03.214Z,1003.79
2023-05-22T10:36:03.111Z,1003.76
2023-05-22T10:37:16.532Z,1003.77
2023-05-22T10:38:02.935Z,1003.78
2023-05-22T10:39:03.313Z,1003.79
2023-05-22T10:40:02.920Z,1003.84
2023-05-22T10:41:02.998Z,1003.78
2023-05-22T10:42:02.826Z,1003.77
2023-05-22T10:43:02.432Z,1003.78
2023-05-22T10:44:02.986Z,1003.79
2023-05-22T10:45:02.704Z,1003.78
2023-05-22T10:46:02.912Z,1003.78
2023-05-22T10:47:03.047Z,1003.75
2023-05-22T10:48:02.985Z,1003.81
2023-05-22T10:49:02.817Z,1003.87
2023-05-22T10:50:02.782Z,1003.84
2023-05-22T10:51:02.944Z,1003.77
2023-05-22T10:52:02.594Z,1003.78
2023-05-22T10:53:02.898Z,1003.81
2023-05-22T10:54:02.773Z,1003.78
2023-05-22T10:55:03.133Z,1003.81
2023-05-22T10:56:03.323Z,1003.85
2023-05-22T10:57:02.844Z,1003.81
2023-05-22T10:58:04.959Z,1003.79
2023-05-22T10:59:03.318Z,1003.74
2023-05-22T11:00:03.064Z,1003.78
2023-05-22T11:01:02.804Z,1003.77
2023-05-22T11:02:03.043Z,1003.73
2023-05-22T11:03:13.534Z,1003.76
2023-05-22T11:04:03.174Z,1003.78
2023-05-22T11:05:02.800Z,1003.77
2023-05-22T11:06:02.803Z,1003.77
2023-05-22T11:07:02.730Z,1003.76
2023-05-22T11:08:02.351Z,1003.76
2023-05-22T11:09:02.574Z,1003.76
2023-05-22T11:10:02.924Z,1003.79
2023-05-22T11:11:02.516Z,1003.73
2023-05-22T11:12:02.660Z,1003.78
2023-05-22T11:13:03.081Z,1003.80
2023-05-22T11:14:02.557Z,1003.79
2023-05-22T11:15:03.151Z,1003.74
2023-05-22T11:16:02.741Z,1003.79
2023-05-22T11:17:03.005Z,1003.79
2023-05-22T11:18:02.955Z,1003.80
2023-05-22T11:19:21.184Z,1003.76
2023-05-22T11:20:03.160Z,1003.80
2023-05-22T11:21:02.795Z,1003.74
2023-05-22T11:22:02.987Z,1003.73
2023-05-22T11:23:03.286Z,1003.77
2023-05-22T11:24:03.209Z,1003.71
2023-05-22T11:25:03.423Z,1003.79
2023-05-22T11:26:03.261Z,1003.72
2023-05-22T11:27:03.291Z,1003.78
2023-05-22T11:28:03.441Z,1003.79
2023-05-22T11:29:03.228Z,1003.74
2023-05-22T11:30:02.796Z,1003.75
2023-05-22T11:31:02.479Z,1003.69
2023-05-22T11:32:02.840Z,1003.69
2023-05-22T11:33:02.790Z,1003.67
2023-05-22T11:34:02.543Z,1003.69
2023-05-22T11:35:03.381Z,1003.64
2023-05-22T11:36:03.163Z,1003.68
2023-05-22T11:37:02.932Z,1003.66
2023-05-22T11:38:03.153Z,1003.61
2023-05-22T11:39:03.223Z,1003.57
2023-05-22T11:40:02.669Z,1003.60
2023-05-22T11:41:02.222Z,1003.54
2023-05-22T11:42:02.339Z,1003.60
2023-05-22T11:43:02.382Z,1003.64
2023-05-22T11:44:02.328Z,1003.57
2023-05-22T11:45:02.980Z,1003.57
2023-05-22T11:46:03.027Z,1003.54
2023-05-22T11:47:02.936Z,1003.54
2023-05-22T11:48:02.760Z,1003.49
2023-05-22T11:49:02.968Z,1003.47
2023-05-22T11:50:03.375Z,1003.53
2023-05-22T11:51:02.691Z,1003.49
2023-05-22T11:52:03.270Z,1003.51
2023-05-22T11:53:02.753Z,1003.52
2023-05-22T11:54:02.750Z,1003.47
2023-05-22T11:55:03.448Z,1003.48
2023-05-22T11:56:03.293Z,1003.48
2023-05-22T11:57:03.487Z,1003.43
2023-05-22T11:58:03.382Z,1003.43
2023-05-22T11:59:03.070Z,1003.49
2023-05-22T12:00:02.262Z,1003.44
2023-05-22T12:01:02.417Z,1003.41
2023-05-22T12:02:02.628Z,1003.39
2023-05-22T12:03:02.658Z,1003.44
2023-05-22T12:04:02.740Z,1003.38
2023-05-22T12:05:02.714Z,1003.35